Time;durP1;ratioP1;P1;durP2;ratioP2;P2;SDS_P1;SDS_P2;PMS_P1;PMS_P2;Temp;Humidity;BMP_temperature;BMP_pressure;BME280_temperature;BME280_humidity;BME280_pressure;Samples;Min_cycle;Max_cycle;Signal;HPM_P1;HPM_P2
2022/05/13 00:04:39;;;;;;;5.78;3.50;;;13.30;82.60;;;;;;10135080;29;20065;-92
2022/05/13 00:10:00;;;;;;;8.18;3.20;;;13.30;83.50;;;;;;10140142;29;20044;-92
2022/05/13 00:15:25;;;;;;;9.88;3.67;;;13.30;84.80;;;;;;10141536;29;20109;-93
2022/05/13 00:20:28;;;;;;;6.68;3.33;;;13.20;86.20;;;;;;10098370;29;20062;-92
2022/05/13 00:25:32;;;;;;;10.25;4.25;;;13.30;86.60;;;;;;10131186;29;20037;-92
2022/05/13 00:30:39;;;;;;;7.07;3.75;;;13.40;87.30;;;;;;10112683;29;20036;-92
2022/05/13 00:35:42;;;;;;;6.57;3.35;;;13.40;88.00;;;;;;10124462;29;20047;-92
2022/05/13 00:40:44;;;;;;;8.38;3.17;;;13.40;86.60;;;;;;10112621;29;20125;-90
2022/05/13 00:45:45;;;;;;;6.75;3.50;;;13.40;87.40;;;;;;10129880;29;20024;-92
2022/05/13 00:50:45;;;;;;;9.63;3.63;;;13.40;88.20;;;;;;10129952;29;20473;-93
2022/05/13 00:55:49;;;;;;;5.63;3.10;;;13.40;89.10;;;;;;10109306;29;20051;-92
2022/05/13 01:00:50;;;;;;;7.20;3.30;;;13.20;85.90;;;;;;10109516;29;20722;-93
2022/05/13 01:05:56;;;;;;;10.30;4.03;;;13.40;87.70;;;;;;10092549;29;20151;-92
2022/05/13 01:11:00;;;;;;;11.00;4.20;;;13.50;90.40;;;;;;10090385;29;20033;-93
2022/05/13 01:16:00;;;;;;;10.10;4.25;;;13.40;89.30;;;;;;10109968;29;20040;-92
2022/05/13 01:21:04;;;;;;;11.05;3.83;;;13.30;90.20;;;;;;10108271;29;20044;-91
2022/05/13 01:26:13;;;;;;;11.15;4.32;;;13.20;90.60;;;;;;10126706;29;20462;-92
2022/05/13 01:31:25;;;;;;;6.90;2.92;;;13.10;91.00;;;;;;10108770;29;20056;-92
2022/05/13 01:36:27;;;;;;;5.53;3.55;;;13.10;90.90;;;;;;10121258;29;20135;-92
2022/05/13 01:41:30;;;;;;;8.38;4.63;;;13.20;91.00;;;;;;10140281;29;20033;-91
2022/05/13 01:46:39;;;;;;;8.52;4.05;;;13.30;91.60;;;;;;10108411;29;20033;-92
2022/05/13 01:51:40;;;;;;;9.65;4.55;;;13.50;91.70;;;;;;10113107;29;20041;-92
2022/05/13 01:56:43;;;;;;;9.65;4.10;;;13.50;88.50;;;;;;10145820;29;20560;-92
2022/05/13 02:01:47;;;;;;;9.05;3.92;;;13.60;87.00;;;;;;10119787;29;20074;-91
2022/05/13 02:06:48;;;;;;;8.15;4.65;;;13.60;87.00;;;;;;10121129;29;20747;-92
2022/05/13 02:11:48;;;;;;;8.93;4.63;;;13.60;90.10;;;;;;10116066;29;20132;-91
2022/05/13 02:16:49;;;;;;;12.20;4.22;;;13.60;91.30;;;;;;10115266;29;20028;-92
2022/05/13 02:21:55;;;;;;;8.82;4.40;;;13.60;91.30;;;;;;10131460;29;20037;-92
2022/05/13 02:26:56;;;;;;;9.80;4.28;;;13.70;91.60;;;;;;10116224;29;20064;-93
2022/05/13 02:31:57;;;;;;;11.25;4.00;;;13.60;91.50;;;;;;10127381;29;20067;-92
2022/05/13 02:36:58;;;;;;;16.27;4.57;;;13.60;92.60;;;;;;10116924;29;20084;-93
2022/05/13 02:42:10;;;;;;;9.18;4.50;;;13.50;93.60;;;;;;10147330;29;20104;-93
2022/05/13 02:47:37;;;;;;;7.85;4.25;;;13.50;92.10;;;;;;10116590;29;20059;-93
2022/05/13 02:53:02;;;;;;;13.18;4.32;;;13.50;92.00;;;;;;10116190;29;20516;-93
2022/05/13 02:58:17;;;;;;;12.40;4.53;;;13.50;90.40;;;;;;10077818;29;20064;-94
2022/05/13 03:03:18;;;;;;;13.50;5.33;;;13.40;89.70;;;;;;10106402;29;20044;-93
2022/05/13 03:08:19;;;;;;;6.18;3.95;;;13.40;90.50;;;;;;10114514;29;20356;-90
2022/05/13 03:13:26;;;;;;;11.45;4.40;;;13.30;90.80;;;;;;10092242;29;20604;-91
2022/05/13 03:18:28;;;;;;;8.80;4.32;;;13.40;91.30;;;;;;10099106;29;20033;-91
2022/05/13 03:23:29;;;;;;;6.93;3.92;;;13.40;92.70;;;;;;10084792;29;20029;-94
2022/05/13 03:28:33;;;;;;;13.90;3.97;;;13.30;93.40;;;;;;10077999;29;20552;-92
2022/05/13 03:34:32;;;;;;;;;;;;;;;;;;;;;
2022/05/13 03:46:09;;;;;;;6.70;3.55;;;13.20;93.50;;;;;;10160174;29;20048;-90
2022/05/13 03:51:09;;;;;;;6.70;3.58;;;13.00;94.10;;;;;;10114037;29;20033;-90
2022/05/13 03:56:11;;;;;;;8.05;4.35;;;13.00;94.70;;;;;;10125704;29;20048;-93
2022/05/13 04:01:21;;;;;;;10.90;4.05;;;13.10;94.80;;;;;;10126848;29;20020;-93
2022/05/13 04:22:24;;;;;;;8.53;5.50;;;13.30;98.70;;;;;;10085240;29;20057;-89
2022/05/13 04:27:25;;;;;;;8.52;5.65;;;13.50;99.90;;;;;;10081344;29;20040;-92
2022/05/13 04:32:26;;;;;;;13.85;5.05;;;13.70;99.90;;;;;;10057415;29;20045;-89
2022/05/13 04:37:27;;;;;;;12.98;7.60;;;14.00;99.90;;;;;;10063454;29;20140;-92
2022/05/13 04:48:16;;;;;;;9.55;4.60;;;14.40;99.90;;;;;;10087133;29;20580;-90
2022/05/13 04:53:25;;;;;;;10.80;4.78;;;14.60;97.40;;;;;;10070774;29;20080;-91
2022/05/13 04:58:27;;;;;;;10.27;3.92;;;14.70;96.20;;;;;;10070013;29;20029;-90
2022/05/13 05:03:29;;;;;;;8.50;4.15;;;14.90;94.90;;;;;;10070474;29;20025;-90
2022/05/13 05:08:30;;;;;;;10.80;4.53;;;15.10;95.60;;;;;;10070171;29;20025;-91
2022/05/13 05:13:37;;;;;;;6.97;3.88;;;15.30;93.00;;;;;;10070348;29;20037;-90
2022/05/13 05:18:40;;;;;;;13.60;4.25;;;15.50;92.30;;;;;;10070074;29;20489;-91
2022/05/13 05:23:43;;;;;;;14.13;4.30;;;15.70;92.00;;;;;;10070836;29;20035;-91
2022/05/13 05:28:44;;;;;;;16.45;4.38;;;15.90;92.30;;;;;;10077345;29;20044;-90
2022/05/13 05:33:45;;;;;;;11.80;4.70;;;16.10;90.60;;;;;;10076373;29;20743;-92
2022/05/13 05:38:46;;;;;;;11.32;4.18;;;16.20;90.50;;;;;;10077498;29;20033;-90
2022/05/13 05:43:46;;;;;;;11.52;4.40;;;16.40;85.20;;;;;;10077012;29;20036;-91
2022/05/13 05:48:47;;;;;;;9.88;4.50;;;16.60;88.00;;;;;;10076623;29;20127;-90
2022/05/13 05:59:07;;;;;;;15.27;4.15;;;16.90;85.50;;;;;;10093719;29;20049;-90
2022/05/13 06:04:08;;;;;;;9.18;3.95;;;17.20;83.50;;;;;;10076009;29;20089;-90
2022/05/13 06:09:09;;;;;;;6.60;3.30;;;17.50;83.30;;;;;;10075720;29;20081;-90
2022/05/13 06:14:10;;;;;;;8.85;3.17;;;17.80;83.80;;;;;;10075987;29;20553;-90
2022/05/13 06:19:11;;;;;;;13.05;3.70;;;18.10;82.10;;;;;;10074958;29;20477;-87
2022/05/13 06:24:12;;;;;;;12.00;4.18;;;18.40;78.80;;;;;;10075747;29;20025;-87
2022/05/13 06:29:12;;;;;;;8.88;3.60;;;18.60;79.80;;;;;;10075469;29;20132;-87
2022/05/13 06:34:14;;;;;;;13.45;3.67;;;18.80;75.50;;;;;;10073853;29;20767;-86
2022/05/13 06:39:15;;;;;;;11.48;3.05;;;18.80;76.60;;;;;;10040689;29;20116;-87
2022/05/13 06:44:18;;;;;;;8.52;4.03;;;18.90;75.10;;;;;;10052893;29;20041;-88
2022/05/13 06:49:18;;;;;;;9.25;3.90;;;19.00;73.30;;;;;;10065001;29;20045;-87
2022/05/13 06:54:19;;;;;;;9.68;4.15;;;19.20;74.20;;;;;;10081221;29;20040;-90
2022/05/13 06:59:20;;;;;;;12.80;4.68;;;19.30;72.80;;;;;;10068452;29;20037;-88
2022/05/13 07:04:21;;;;;;;9.20;3.70;;;19.40;73.80;;;;;;10066030;29;20029;-90
2022/05/13 07:09:22;;;;;;;13.18;3.90;;;19.40;72.50;;;;;;10072574;29;20021;-88
2022/05/13 07:14:23;;;;;;;8.73;3.40;;;19.40;72.00;;;;;;10066967;29;20067;-87
2022/05/13 07:19:23;;;;;;;12.70;3.88;;;19.80;71.40;;;;;;10072499;29;20143;-88
2022/05/13 07:24:24;;;;;;;13.30;3.53;;;20.10;67.80;;;;;;10081889;29;20129;-88
2022/05/13 07:29:25;;;;;;;8.02;3.17;;;20.20;68.40;;;;;;10083666;29;20505;-91
2022/05/13 07:34:25;;;;;;;10.32;2.80;;;20.30;66.70;;;;;;10074347;29;20045;-88
2022/05/13 07:44:45;;;;;;;6.40;2.85;;;20.50;68.40;;;;;;10072797;29;20449;-89
2022/05/13 07:49:46;;;;;;;12.07;3.60;;;20.70;67.70;;;;;;10070164;29;20021;-89
2022/05/13 07:54:46;;;;;;;10.65;3.75;;;20.90;66.30;;;;;;10069929;29;20033;-89
2022/05/13 08:05:08;;;;;;;12.82;3.33;;;21.20;64.00;;;;;;10086895;29;20037;-89
2022/05/13 08:10:13;;;;;;;8.40;3.45;;;21.10;66.30;;;;;;10070975;29;20036;-87
2022/05/13 08:15:14;;;;;;;11.23;3.30;;;21.10;66.50;;;;;;10071756;29;20041;-89
2022/05/13 08:20:15;;;;;;;6.55;2.97;;;21.20;66.80;;;;;;10071065;29;20057;-90
2022/05/13 08:25:16;;;;;;;6.82;3.20;;;21.40;65.60;;;;;;10071980;29;20124;-90
2022/05/13 08:30:17;;;;;;;10.90;3.58;;;21.60;64.60;;;;;;10070308;29;20044;-89
2022/05/13 08:35:19;;;;;;;8.82;3.47;;;22.30;64.50;;;;;;10087609;29;20477;-89
2022/05/13 08:40:31;;;;;;;12.82;4.30;;;22.70;61.60;;;;;;10088139;29;20499;-90
2022/05/13 08:45:32;;;;;;;10.70;2.80;;;22.80;59.40;;;;;;10071059;29;20131;-88
2022/05/13 08:50:37;;;;;;;4.93;2.72;;;22.50;61.30;;;;;;10070555;29;20037;-87
2022/05/13 08:55:47;;;;;;;7.35;2.70;;;22.30;61.40;;;;;;10070178;29;20037;-88
2022/05/13 09:00:50;;;;;;;5.03;2.78;;;22.20;64.10;;;;;;10078970;29;20093;-87
2022/05/13 09:06:03;;;;;;;9.48;2.35;;;22.50;61.90;;;;;;10083583;29;20606;-88
2022/05/13 09:11:49;;;;;;;8.10;2.95;;;22.90;59.20;;;;;;10049530;29;20037;-89
2022/05/13 09:17:14;;;;;;;11.57;3.05;;;23.40;58.80;;;;;;10083112;29;20053;-88
2022/05/13 09:22:15;;;;;;;11.38;3.85;;;23.90;55.90;;;;;;10084344;29;20092;-89
2022/05/13 09:27:15;;;;;;;6.60;2.95;;;24.20;57.20;;;;;;10076129;29;20123;-89
2022/05/13 09:32:28;;;;;;;8.07;3.42;;;24.10;55.80;;;;;;10072353;29;20033;-89
2022/05/13 09:37:38;;;;;;;8.35;2.70;;;24.60;58.70;;;;;;10075219;29;20036;-88
2022/05/13 09:42:42;;;;;;;12.55;2.95;;;24.50;57.70;;;;;;10103545;29;20043;-89
2022/05/13 09:47:46;;;;;;;7.30;3.00;;;24.40;56.10;;;;;;10117713;29;20031;-89
2022/05/13 09:52:47;;;;;;;7.65;2.67;;;24.70;56.20;;;;;;10119658;29;20033;-88
2022/05/13 09:57:51;;;;;;;6.22;2.20;;;25.10;55.80;;;;;;10118805;29;20185;-89
2022/05/13 10:03:26;;;;;;;5.95;2.63;;;25.40;53.10;;;;;;10121585;29;20516;-89
2022/05/13 10:08:28;;;;;;;7.67;2.60;;;25.50;51.90;;;;;;10122370;29;20020;-87
2022/05/13 10:19:04;;;;;;;10.45;4.35;;;26.20;53.30;;;;;;10131269;29;20488;-89
2022/05/13 10:24:28;;;;;;;7.93;3.97;;;25.90;53.00;;;;;;10114745;29;20350;-89
2022/05/13 10:30:02;;;;;;;8.77;3.97;;;25.90;54.50;;;;;;10079395;29;20085;-92
2022/05/13 10:35:07;;;;;;;10.30;4.88;;;26.00;54.00;;;;;;10114581;29;20163;-87
2022/05/13 10:40:12;;;;;;;8.70;4.50;;;26.00;53.20;;;;;;10072600;29;20406;-88
2022/05/13 10:45:24;;;;;;;8.38;4.85;;;26.10;53.40;;;;;;10092754;29;20053;-88
2022/05/13 10:50:33;;;;;;;8.50;4.13;;;26.30;54.90;;;;;;10089646;29;20491;-90
2022/05/13 10:56:04;;;;;;;9.82;4.15;;;26.40;53.40;;;;;;10106515;29;20041;-87
2022/05/13 11:01:31;;;;;;;8.75;5.15;;;25.50;52.60;;;;;;10083483;29;20067;-89
2022/05/13 11:06:49;;;;;;;13.02;5.25;;;25.40;53.60;;;;;;10072470;29;20068;-87
2022/05/13 11:11:53;;;;;;;9.38;4.57;;;26.00;54.20;;;;;;10074324;29;20033;-88
2022/05/13 11:17:02;;;;;;;11.60;3.40;;;26.30;55.70;;;;;;10075284;29;20494;-87
2022/05/13 11:22:45;;;;;;;7.20;3.40;;;26.40;52.60;;;;;;10073357;29;20072;-90
2022/05/13 11:28:01;;;;;;;8.38;2.70;;;26.20;54.50;;;;;;10082885;29;20028;-87
2022/05/13 11:33:43;;;;;;;7.30;3.05;;;25.60;54.90;;;;;;10087417;29;20482;-87
2022/05/13 11:38:59;;;;;;;10.13;2.60;;;25.80;53.90;;;;;;10040333;29;20457;-89
2022/05/13 11:44:02;;;;;;;7.57;3.03;;;25.20;54.10;;;;;;10066911;29;20056;-87
2022/05/13 11:49:14;;;;;;;10.90;3.15;;;25.30;55.30;;;;;;10068474;29;20029;-92
2022/05/13 11:54:21;;;;;;;7.53;3.58;;;24.80;55.10;;;;;;10070952;29;20089;-89
2022/05/13 11:59:37;;;;;;;5.25;2.75;;;25.20;54.90;;;;;;10065940;29;20064;-89
2022/05/13 12:05:07;;;;;;;7.43;3.10;;;25.90;56.30;;;;;;10058513;29;20120;-87
2022/05/13 12:10:10;;;;;;;7.80;2.85;;;26.30;55.40;;;;;;10085895;29;20040;-87
2022/05/13 12:15:33;;;;;;;6.35;2.83;;;26.50;53.40;;;;;;10072957;29;20395;-88
2022/05/13 12:20:57;;;;;;;8.23;2.05;;;26.70;54.80;;;;;;10057670;29;20472;-89
2022/05/13 12:26:01;;;;;;;6.97;2.17;;;26.80;52.50;;;;;;10102888;29;20075;-89
2022/05/13 12:31:22;;;;;;;4.82;2.20;;;26.80;53.40;;;;;;10096567;29;20033;-89
2022/05/13 12:41:53;;;;;;;6.72;1.77;;;25.40;52.70;;;;;;10082228;29;20132;-87
2022/05/13 12:47:14;;;;;;;5.28;1.90;;;25.10;55.40;;;;;;10058650;29;20069;-89
2022/05/13 12:52:34;;;;;;;3.28;1.70;;;25.10;54.30;;;;;;10079776;29;20061;-89
2022/05/13 12:57:43;;;;;;;3.40;1.60;;;24.90;54.90;;;;;;10085197;29;20074;-87
2022/05/13 13:02:47;;;;;;;3.75;1.90;;;25.20;55.50;;;;;;10081755;29;20111;-87
2022/05/13 13:07:52;;;;;;;5.05;1.95;;;25.70;54.50;;;;;;10074168;29;20029;-88
2022/05/13 13:13:19;;;;;;;3.92;2.08;;;25.00;54.00;;;;;;10064654;29;20501;-87
2022/05/13 13:18:29;;;;;;;5.63;2.55;;;25.00;55.00;;;;;;10085031;29;20117;-86
2022/05/13 13:23:34;;;;;;;7.25;2.47;;;25.00;55.30;;;;;;10093021;29;20423;-87
2022/05/13 13:28:39;;;;;;;5.75;2.13;;;24.50;56.80;;;;;;10064154;29;20397;-87
2022/05/13 13:33:49;;;;;;;7.32;3.75;;;24.20;56.90;;;;;;10088595;29;20115;-87
2022/05/13 13:38:53;;;;;;;7.93;3.00;;;23.90;58.10;;;;;;10095689;29;20425;-86
2022/05/13 13:43:56;;;;;;;8.20;2.90;;;23.70;58.50;;;;;;10075504;29;20494;-86
2022/05/13 13:49:02;;;;;;;8.55;3.55;;;23.50;59.70;;;;;;10091707;29;20025;-87
2022/05/13 13:54:12;;;;;;;4.75;2.78;;;23.50;60.80;;;;;;10087229;29;20047;-90
2022/05/13 13:59:25;;;;;;;6.38;2.28;;;23.50;61.50;;;;;;10090886;29;20033;-88
2022/05/13 14:04:28;;;;;;;4.75;2.60;;;23.40;62.30;;;;;;10076574;29;20025;-88
2022/05/13 14:09:36;;;;;;;8.18;2.95;;;23.60;60.90;;;;;;10097099;29;20067;-88
2022/05/13 14:14:45;;;;;;;6.13;2.38;;;24.00;61.40;;;;;;10075762;29;20060;-87
2022/05/13 14:19:54;;;;;;;12.27;3.88;;;24.00;61.10;;;;;;10075810;29;20726;-90
2022/05/13 14:25:06;;;;;;;14.98;5.57;;;23.90;64.10;;;;;;10067059;29;20033;-88
2022/05/13 14:30:11;;;;;;;6.10;3.00;;;23.70;62.30;;;;;;10061482;29;20060;-87
2022/05/13 14:35:19;;;;;;;23.60;10.20;;;23.60;63.10;;;;;;10079867;23;20402;-86
2022/05/13 14:40:24;;;;;;;552.03;491.55;;;23.50;63.90;;;;;;10083694;29;20040;-86
2022/05/13 14:45:28;;;;;;;80.60;60.03;;;23.30;61.20;;;;;;10080081;29;20085;-87
2022/05/13 14:50:34;;;;;;;10.25;5.30;;;23.20;59.90;;;;;;10060236;29;20660;-90
2022/05/13 14:55:36;;;;;;;178.35;118.43;;;23.20;60.70;;;;;;10082233;29;20047;-88
2022/05/13 15:01:08;;;;;;;40.28;27.00;;;23.50;61.20;;;;;;10068871;29;20513;-91
2022/05/13 15:06:30;;;;;;;25.00;15.48;;;23.60;60.00;;;;;;10088613;29;20033;-87
2022/05/13 15:11:31;;;;;;;9.48;3.35;;;23.90;57.00;;;;;;10077450;29;20043;-86
2022/05/13 15:16:32;;;;;;;10.82;3.67;;;23.80;55.10;;;;;;10068288;29;20375;-89
2022/05/13 15:21:34;;;;;;;16.92;11.48;;;23.70;56.90;;;;;;10072151;29;20131;-87
2022/05/13 15:26:35;;;;;;;11.65;6.00;;;23.60;55.60;;;;;;10056216;29;20040;-88
2022/05/13 15:31:36;;;;;;;7.97;2.53;;;23.60;55.60;;;;;;10063871;29;20035;-86
2022/05/13 15:36:40;;;;;;;6.30;2.28;;;23.30;54.50;;;;;;10068956;29;20083;-88
2022/05/13 15:41:43;;;;;;;4.63;2.27;;;23.10;54.70;;;;;;10056989;29;20039;-88
2022/05/13 15:46:47;;;;;;;8.70;4.75;;;23.00;53.60;;;;;;10048096;29;20033;-88
2022/05/13 15:57:13;;;;;;;3.67;1.80;;;23.00;54.70;;;;;;10088499;29;20502;-89
2022/05/13 16:02:14;;;;;;;2.95;1.80;;;22.80;59.90;;;;;;10072852;29;20096;-88
2022/05/13 16:07:17;;;;;;;6.75;1.75;;;22.20;62.40;;;;;;10054279;29;20085;-89
2022/05/13 16:12:43;;;;;;;6.63;2.10;;;21.80;63.90;;;;;;10041055;29;20398;-90
2022/05/13 16:17:45;;;;;;;;;;;21.40;66.40;;;;;;10060516;29;20065;-91
2022/05/13 16:22:48;;;;;;;3.70;1.70;;;21.20;66.40;;;;;;10072090;29;19908;-90
2022/05/13 16:27:50;;;;;;;3.55;1.90;;;21.00;67.70;;;;;;10073825;29;20021;-91
2022/05/13 16:32:53;;;;;;;4.40;2.20;;;20.70;68.70;;;;;;10062936;29;20041;-90
2022/05/13 16:37:54;;;;;;;7.28;2.42;;;20.50;68.70;;;;;;10071497;29;20097;-91
2022/05/13 16:42:54;;;;;;;3.75;1.85;;;20.30;69.20;;;;;;10056263;29;20562;-88
2022/05/13 16:47:56;;;;;;;3.28;2.00;;;20.20;69.70;;;;;;10070966;29;20043;-87
2022/05/13 16:53:01;;;;;;;6.93;1.90;;;20.00;70.40;;;;;;10060464;29;20692;-91
2022/05/13 16:58:03;;;;;;;6.57;1.90;;;19.70;71.00;;;;;;10049259;29;20025;-89
2022/05/13 17:03:03;;;;;;;3.45;1.90;;;19.60;71.70;;;;;;10053372;29;20123;-90
2022/05/13 17:19:17;;;;;;;7.85;2.40;;;19.30;73.80;;;;;;10073816;29;20041;-92
2022/05/13 17:24:30;;;;;;;7.80;2.50;;;19.20;73.90;;;;;;10070159;29;20128;-88
2022/05/13 17:29:30;;;;;;;5.20;2.08;;;19.10;73.70;;;;;;10076536;29;20115;-88
2022/05/13 17:34:32;;;;;;;3.40;2.50;;;19.00;73.70;;;;;;10077140;29;20108;-88
2022/05/13 17:39:37;;;;;;;5.50;2.78;;;19.00;74.30;;;;;;10075840;29;20057;-89
2022/05/13 17:44:38;;;;;;;3.72;2.10;;;18.90;74.60;;;;;;10062267;29;20034;-87
2022/05/13 17:49:39;;;;;;;4.53;2.10;;;18.80;74.70;;;;;;10090408;29;20037;-91
2022/05/13 17:54:40;;;;;;;4.80;2.30;;;18.80;74.90;;;;;;10074266;29;20136;-88
2022/05/13 17:59:41;;;;;;;5.60;2.38;;;18.80;75.60;;;;;;10077395;29;20025;-88
2022/05/13 18:04:42;;;;;;;4.95;2.28;;;18.70;75.80;;;;;;10066832;29;20037;-89
2022/05/13 18:09:43;;;;;;;4.90;2.70;;;18.50;76.20;;;;;;10074084;29;20414;-88
2022/05/13 18:14:43;;;;;;;4.07;2.60;;;18.40;76.80;;;;;;10076478;29;20051;-89
2022/05/13 18:19:44;;;;;;;5.40;2.90;;;18.30;77.40;;;;;;10056922;29;20052;-89
2022/05/13 18:24:45;;;;;;;3.72;2.58;;;18.40;77.80;;;;;;10073542;29;20382;-88
2022/05/13 18:29:47;;;;;;;5.50;2.83;;;18.40;79.60;;;;;;10075593;29;20497;-91
2022/05/13 18:34:50;;;;;;;4.32;2.83;;;18.20;80.60;;;;;;10061239;29;20490;-88
2022/05/13 18:50:35;;;;;;;6.97;2.95;;;18.30;76.40;;;;;;10066531;29;20045;-87
2022/05/13 18:55:36;;;;;;;4.40;3.28;;;18.30;75.70;;;;;;10091176;29;20490;-87
2022/05/13 19:00:37;;;;;;;5.03;2.70;;;18.20;75.20;;;;;;10074350;29;20037;-88
2022/05/13 19:05:38;;;;;;;5.18;2.58;;;18.10;74.60;;;;;;10071398;29;20044;-87
2022/05/13 19:10:38;;;;;;;5.57;2.58;;;18.00;73.90;;;;;;10074334;29;20393;-89
2022/05/13 19:16:05;;;;;;;4.45;2.20;;;18.00;73.50;;;;;;10064731;29;20041;-89
2022/05/13 19:21:06;;;;;;;5.10;2.25;;;18.10;71.40;;;;;;10034071;29;20141;-88
2022/05/13 19:26:11;;;;;;;6.40;2.47;;;18.00;70.10;;;;;;10064260;29;20124;-87
2022/05/13 19:31:17;;;;;;;4.40;2.30;;;18.00;68.20;;;;;;10071398;29;20510;-89
2022/05/13 19:36:18;;;;;;;4.95;2.45;;;17.90;67.90;;;;;;10070876;29;20057;-87
2022/05/13 19:41:18;;;;;;;7.80;2.55;;;17.90;68.10;;;;;;10066857;29;20029;-86
2022/05/13 19:46:21;;;;;;;7.75;2.08;;;17.80;66.50;;;;;;10078032;29;20588;-89
2022/05/13 19:51:22;;;;;;;5.90;2.20;;;17.80;67.00;;;;;;10060881;29;20037;-88
2022/05/13 19:56:23;;;;;;;7.75;2.40;;;17.70;67.60;;;;;;10051247;29;20045;-88
2022/05/13 20:01:23;;;;;;;6.88;2.45;;;17.70;66.90;;;;;;10042017;29;20033;-87
2022/05/13 20:11:43;;;;;;;9.48;3.05;;;17.50;67.50;;;;;;10088037;29;20446;-88
2022/05/13 20:16:45;;;;;;;8.63;2.83;;;17.50;67.60;;;;;;10054380;29;20052;-89
2022/05/13 20:27:05;;;;;;;7.88;3.88;;;17.20;68.70;;;;;;10089249;29;20052;-88
2022/05/13 20:32:08;;;;;;;8.63;4.13;;;17.00;69.60;;;;;;10069892;29;20036;-88
2022/05/13 20:37:11;;;;;;;7.47;4.10;;;16.80;70.30;;;;;;10083105;29;20089;-93
2022/05/13 20:42:12;;;;;;;7.30;4.25;;;16.70;72.00;;;;;;10056388;29;20176;-89
2022/05/13 20:47:13;;;;;;;5.95;4.43;;;16.40;73.10;;;;;;10050228;29;20111;-87
2022/05/13 20:52:14;;;;;;;9.43;5.05;;;16.30;73.90;;;;;;10057952;29;20048;-87
2022/05/13 20:57:17;;;;;;;10.35;5.30;;;16.20;75.20;;;;;;10054202;29;20125;-89
2022/05/13 21:02:18;;;;;;;8.10;5.05;;;16.10;75.00;;;;;;10069914;29;20116;-87
2022/05/13 21:07:22;;;;;;;7.63;5.82;;;15.90;75.80;;;;;;10070247;29;20033;-89
2022/05/13 21:12:23;;;;;;;12.60;6.10;;;15.80;76.10;;;;;;10070042;29;20557;-88
2022/05/13 21:17:24;;;;;;;7.68;5.38;;;15.70;76.20;;;;;;10058568;29;20033;-88
2022/05/13 21:22:25;;;;;;;9.65;6.35;;;15.50;76.90;;;;;;10069782;29;20397;-89
2022/05/13 21:27:26;;;;;;;8.35;5.35;;;15.30;77.30;;;;;;10069402;29;20029;-89
2022/05/13 21:37:46;;;;;;;10.15;6.40;;;15.10;78.30;;;;;;10074758;29;20685;-87
2022/05/13 21:42:46;;;;;;;11.35;6.40;;;14.90;78.80;;;;;;10071021;29;20022;-90
2022/05/13 21:47:50;;;;;;;11.63;6.30;;;14.80;79.90;;;;;;10086424;29;20036;-90
2022/05/13 21:52:51;;;;;;;10.23;6.70;;;14.60;79.70;;;;;;10081898;29;20391;-89
2022/05/13 21:57:52;;;;;;;10.98;6.60;;;14.40;80.40;;;;;;10068252;29;20029;-88
2022/05/13 22:02:53;;;;;;;9.93;6.70;;;14.30;80.40;;;;;;10069126;29;20390;-88
2022/05/13 22:07:54;;;;;;;11.57;8.10;;;14.10;81.50;;;;;;10073505;29;20056;-89
2022/05/13 22:12:54;;;;;;;12.57;8.30;;;13.60;83.30;;;;;;10042390;29;20252;-90
2022/05/13 22:17:55;;;;;;;14.52;8.30;;;13.10;85.10;;;;;;10057679;29;20041;-89
2022/05/13 22:22:56;;;;;;;14.88;8.38;;;12.80;86.60;;;;;;10075743;29;20037;-87
2022/05/13 22:27:56;;;;;;;12.43;8.10;;;12.50;87.80;;;;;;10075469;29;20029;-89
2022/05/13 22:32:57;;;;;;;12.38;8.40;;;12.40;89.30;;;;;;10091474;29;20045;-88
2022/05/13 22:37:58;;;;;;;11.45;8.57;;;12.20;90.40;;;;;;10075333;29;20501;-89
2022/05/13 22:42:59;;;;;;;16.55;9.57;;;12.10;92.00;;;;;;10106284;29;20029;-88
2022/05/13 22:48:00;;;;;;;14.00;8.07;;;11.90;94.20;;;;;;10062016;29;20493;-88
2022/05/13 22:53:01;;;;;;;13.60;9.50;;;11.80;97.30;;;;;;10066410;29;20055;-90
2022/05/13 22:58:03;;;;;;;15.68;9.48;;;11.70;99.30;;;;;;10074317;29;20045;-91
2022/05/13 23:03:04;;;;;;;16.38;8.48;;;11.60;99.90;;;;;;10070926;29;20098;-88
2022/05/13 23:13:24;;;;;;;17.15;9.98;;;11.40;99.90;;;;;;10078700;29;20045;-89
2022/05/13 23:18:25;;;;;;;16.83;9.85;;;11.40;99.90;;;;;;10065627;29;20033;-91
2022/05/13 23:23:25;;;;;;;17.58;10.77;;;11.40;99.90;;;;;;10073743;29;20189;-88
2022/05/13 23:28:26;;;;;;;21.50;10.82;;;11.30;99.90;;;;;;10105262;29;20044;-90
2022/05/13 23:33:27;;;;;;;14.85;9.85;;;11.20;99.90;;;;;;10072466;29;20041;-88
2022/05/13 23:38:28;;;;;;;15.70;9.07;;;11.20;99.90;;;;;;10073146;29;20501;-89
2022/05/13 23:43:28;;;;;;;14.07;9.25;;;11.30;99.90;;;;;;10073181;29;20033;-89
2022/05/13 23:48:29;;;;;;;10.18;8.15;;;11.30;99.90;;;;;;10071755;29;20573;-89
2022/05/13 23:58:50;;;;;;;14.98;6.57;;;11.60;99.90;;;;;;10052418;29;20039;-88
